EJM2211 SPQU-SPJC
Flight info
| Callsign | EJM2211 |
|---|---|
| Flight time | N/A |
| Altitude | 34000 |
| Route | SIME1G VUPKO UT323 SCO ESEDI3 |
| Aircraft | E190/M-SD3/L |
Departure
| Time | 2026-04-22 01:42 |
|---|---|
| Airport | Rodríguez Ballón International Airport (SPQU) |
Arrival
| Time | N/A |
|---|---|
| Airport | Jorge Chávez International Airport (SPJC) |
| Time | Latitude | Longitude | Altitude | Speed | Heading |
|---|---|---|---|---|---|
| 2026-04-22 01:23 | -16.34389 | -71.56786 | 8429 ft | 0 kts | 218° |
| 2026-04-22 01:32 | -16.34388 | -71.56786 | 8430 ft | 0 kts | 220° |
| 2026-04-22 01:33 | -16.34387 | -71.56784 | 8430 ft | 0 kts | 195° |
| 2026-04-22 01:33 | -16.34381 | -71.56782 | 8431 ft | 1 kts | 187° |
| 2026-04-22 01:33 | -16.34375 | -71.56783 | 8431 ft | 0 kts | 163° |
| 2026-04-22 01:33 | -16.34369 | -71.56786 | 8431 ft | 1 kts | 131° |
| 2026-04-22 01:34 | -16.34365 | -71.56794 | 8431 ft | 0 kts | 97° |
| 2026-04-22 01:34 | -16.34366 | -71.56792 | 8431 ft | 0 kts | 102° |
| 2026-04-22 01:34 | -16.34366 | -71.56785 | 8431 ft | 0 kts | 94° |
| 2026-04-22 01:35 | -16.34367 | -71.56781 | 8431 ft | 1 kts | 94° |
| 2026-04-22 01:35 | -16.34367 | -71.56765 | 8432 ft | 2 kts | 88° |
| 2026-04-22 01:36 | -16.34358 | -71.56735 | 8434 ft | 5 kts | 73° |
| 2026-04-22 01:36 | -16.34349 | -71.56689 | 8436 ft | 7 kts | 90° |
| 2026-04-22 01:36 | -16.34353 | -71.56625 | 8439 ft | 10 kts | 94° |
| 2026-04-22 01:36 | -16.34358 | -71.56545 | 8444 ft | 12 kts | 94° |
| 2026-04-22 01:37 | -16.34364 | -71.56445 | 8449 ft | 15 kts | 94° |
| 2026-04-22 01:37 | -16.34371 | -71.56332 | 8456 ft | 16 kts | 93° |
| 2026-04-22 01:37 | -16.34377 | -71.56202 | 8462 ft | 19 kts | 93° |
| 2026-04-22 01:37 | -16.34367 | -71.56058 | 8472 ft | 19 kts | 64° |
| 2026-04-22 01:38 | -16.34294 | -71.55942 | 8486 ft | 18 kts | 56° |
| 2026-04-22 01:38 | -16.34228 | -71.55831 | 8497 ft | 18 kts | 64° |
| 2026-04-22 01:38 | -16.34162 | -71.55732 | 8507 ft | 11 kts | 27° |
| 2026-04-22 01:38 | -16.34132 | -71.55761 | 8508 ft | 6 kts | 283° |
| 2026-04-22 01:39 | -16.34127 | -71.55784 | 8508 ft | 0 kts | 274° |
| 2026-04-22 01:39 | -16.34126 | -71.55797 | 8507 ft | 2 kts | 274° |
| 2026-04-22 01:39 | -16.34126 | -71.55804 | 8507 ft | 1 kts | 274° |
| 2026-04-22 01:39 | -16.34125 | -71.55815 | 8507 ft | 0 kts | 275° |
| 2026-04-22 01:40 | -16.34125 | -71.55816 | 8507 ft | 0 kts | 275° |
| 2026-04-22 01:41 | -16.34117 | -71.56024 | 8500 ft | 70 kts | 274° |
| 2026-04-22 01:41 | -16.34073 | -71.56824 | 8462 ft | 147 kts | 274° |
| 2026-04-22 01:41 | -16.34015 | -71.58070 | 8518 ft | 192 kts | 272° |
| 2026-04-22 01:41 | -16.33941 | -71.59431 | 8683 ft | 183 kts | 274° |
| 2026-04-22 01:42 | -16.33941 | -71.60746 | 8614 ft | 186 kts | 266° |
| 2026-04-22 01:42 | -16.34029 | -71.62064 | 8613 ft | 184 kts | 265° |
| 2026-04-22 01:42 | -16.34131 | -71.63443 | 8579 ft | 208 kts | 266° |
| 2026-04-22 01:42 | -16.34236 | -71.64984 | 9471 ft | 209 kts | 266° |
| 2026-04-22 01:43 | -16.34333 | -71.66430 | 10284 ft | 208 kts | 266° |
| 2026-04-22 01:43 | -16.34443 | -71.68047 | 10403 ft | 245 kts | 266° |
| 2026-04-22 01:43 | -16.34492 | -71.68756 | 10412 ft | 260 kts | 266° |
| 2026-04-22 01:43 | -16.34628 | -71.70768 | 10533 ft | 295 kts | 266° |
| 2026-04-22 01:44 | -16.34777 | -71.72977 | 10990 ft | 315 kts | 266° |
| 2026-04-22 01:44 | -16.34931 | -71.75270 | 11704 ft | 324 kts | 266° |
| 2026-04-22 01:44 | -16.35089 | -71.77629 | 12427 ft | 331 kts | 265° |
| 2026-04-22 01:44 | -16.35249 | -71.80053 | 13150 ft | 337 kts | 266° |
| 2026-04-22 01:45 | -16.35408 | -71.82469 | 13860 ft | 340 kts | 266° |
| 2026-04-22 01:45 | -16.35568 | -71.84923 | 14544 ft | 344 kts | 266° |
| 2026-04-22 01:45 | -16.35729 | -71.87405 | 15184 ft | 347 kts | 266° |
| 2026-04-22 01:45 | -16.35889 | -71.89917 | 15791 ft | 351 kts | 266° |
| 2026-04-22 01:46 | -16.36052 | -71.92469 | 16392 ft | 356 kts | 266° |
| 2026-04-22 01:46 | -16.36213 | -71.95026 | 16992 ft | 361 kts | 266° |
| 2026-04-22 01:46 | -16.36378 | -71.97671 | 17647 ft | 365 kts | 266° |
| 2026-04-22 01:46 | -16.36542 | -72.00307 | 18335 ft | 369 kts | 266° |
| 2026-04-22 01:47 | -16.36707 | -72.02992 | 19003 ft | 373 kts | 266° |
| 2026-04-22 01:47 | -16.36870 | -72.05653 | 19630 ft | 375 kts | 266° |
| 2026-04-22 01:47 | -16.37035 | -72.08378 | 20251 ft | 377 kts | 266° |
| 2026-04-22 01:47 | -16.37197 | -72.11085 | 20813 ft | 379 kts | 266° |
| 2026-04-22 01:48 | -16.37361 | -72.13830 | 21347 ft | 383 kts | 266° |
| 2026-04-22 01:48 | -16.37524 | -72.16596 | 21863 ft | 386 kts | 266° |
| 2026-04-22 01:48 | -16.37687 | -72.19392 | 22370 ft | 389 kts | 266° |
| 2026-04-22 01:48 | -16.37850 | -72.22204 | 22857 ft | 391 kts | 267° |
| 2026-04-22 01:49 | -16.38012 | -72.25015 | 23350 ft | 393 kts | 267° |
| 2026-04-22 01:49 | -16.38174 | -72.27878 | 23870 ft | 395 kts | 267° |
| 2026-04-22 01:49 | -16.38334 | -72.30716 | 24364 ft | 397 kts | 267° |
| 2026-04-22 01:49 | -16.38494 | -72.33588 | 24881 ft | 400 kts | 267° |
| 2026-04-22 01:50 | -16.38652 | -72.36467 | 25407 ft | 402 kts | 267° |
| 2026-04-22 01:50 | -16.38810 | -72.39356 | 25935 ft | 403 kts | 267° |
| 2026-04-22 01:50 | -16.38969 | -72.42309 | 26473 ft | 405 kts | 268° |
| 2026-04-22 01:50 | -16.39122 | -72.45189 | 26981 ft | 407 kts | 268° |
| 2026-04-22 01:51 | -16.39278 | -72.48128 | 27473 ft | 409 kts | 268° |
| 2026-04-22 01:51 | -16.39434 | -72.51125 | 27977 ft | 411 kts | 268° |
| 2026-04-22 01:51 | -16.39585 | -72.54063 | 28463 ft | 414 kts | 268° |
| 2026-04-22 01:51 | -16.39738 | -72.57061 | 28938 ft | 417 kts | 268° |
| 2026-04-22 01:52 | -16.39891 | -72.60117 | 29410 ft | 420 kts | 268° |
| 2026-04-22 01:52 | -16.40041 | -72.63156 | 29873 ft | 423 kts | 268° |
| 2026-04-22 01:52 | -16.40192 | -72.66217 | 30339 ft | 426 kts | 268° |
| 2026-04-22 01:52 | -16.40341 | -72.69270 | 30787 ft | 428 kts | 269° |
| 2026-04-22 01:53 | -16.40490 | -72.72366 | 31227 ft | 431 kts | 269° |
| 2026-04-22 01:53 | -16.40639 | -72.75514 | 31663 ft | 434 kts | 269° |
| 2026-04-22 01:53 | -16.40785 | -72.78643 | 32094 ft | 436 kts | 269° |
| 2026-04-22 01:53 | -16.40930 | -72.81780 | 32543 ft | 437 kts | 269° |
| 2026-04-22 01:54 | -16.41074 | -72.84937 | 33038 ft | 437 kts | 270° |
| 2026-04-22 01:54 | -16.41216 | -72.88084 | 33563 ft | 436 kts | 270° |
| 2026-04-22 01:54 | -16.41356 | -72.91195 | 33949 ft | 428 kts | 270° |
| 2026-04-22 01:54 | -16.41495 | -72.94351 | 33917 ft | 443 kts | 270° |
| 2026-04-22 01:55 | -16.41632 | -72.97601 | 33910 ft | 456 kts | 270° |
| 2026-04-22 01:55 | -16.41766 | -73.00899 | 33884 ft | 458 kts | 271° |
| 2026-04-22 01:55 | -16.42031 | -73.07505 | 33742 ft | 454 kts | 271° |
| 2026-04-22 01:56 | -16.42289 | -73.14046 | 33696 ft | 455 kts | 271° |
| 2026-04-22 01:56 | -16.42540 | -73.20649 | 33704 ft | 457 kts | 271° |
| 2026-04-22 01:57 | -16.42785 | -73.27253 | 33692 ft | 456 kts | 271° |
| 2026-04-22 01:57 | -16.43022 | -73.33815 | 33672 ft | 456 kts | 271° |
| 2026-04-22 01:58 | -16.43256 | -73.40412 | 33653 ft | 456 kts | 271° |
| 2026-04-22 01:58 | -16.43484 | -73.47020 | 33633 ft | 456 kts | 271° |
| 2026-04-22 01:59 | -16.43703 | -73.53587 | 33616 ft | 456 kts | 271° |
| 2026-04-22 01:59 | -16.43916 | -73.60171 | 33601 ft | 457 kts | 271° |
| 2026-04-22 02:00 | -16.44125 | -73.66797 | 33587 ft | 456 kts | 272° |
| 2026-04-22 02:00 | -16.44326 | -73.73403 | 33574 ft | 456 kts | 272° |
| 2026-04-22 02:01 | -16.44120 | -73.79932 | 33564 ft | 451 kts | 284° |
| 2026-04-22 02:01 | -16.42010 | -73.86000 | 33555 ft | 443 kts | 302° |
| 2026-04-22 02:02 | -16.40304 | -73.88610 | 33903 ft | 437 kts | 310° |
| 2026-04-22 02:02 | -16.38227 | -73.90961 | 33952 ft | 440 kts | 320° |
| 2026-04-22 02:02 | -16.33161 | -73.94403 | 33989 ft | 435 kts | 334° |
| 2026-04-22 02:03 | -16.27748 | -73.97242 | 33980 ft | 433 kts | 334° |
| 2026-04-22 02:03 | -16.22353 | -74.00075 | 33950 ft | 432 kts | 334° |
| 2026-04-22 02:04 | -16.14298 | -74.04310 | 33994 ft | 433 kts | 334° |
| 2026-04-22 02:05 | -16.08911 | -74.07145 | 34018 ft | 433 kts | 334° |
| 2026-04-22 02:05 | -16.03492 | -74.10001 | 34014 ft | 433 kts | 334° |
| 2026-04-22 02:06 | -15.98137 | -74.12824 | 34007 ft | 433 kts | 334° |
| 2026-04-22 02:06 | -15.92737 | -74.15669 | 34019 ft | 433 kts | 334° |
| 2026-04-22 02:07 | -15.87342 | -74.18510 | 34040 ft | 433 kts | 334° |
| 2026-04-22 02:07 | -15.81924 | -74.21362 | 34049 ft | 433 kts | 334° |
| 2026-04-22 02:08 | -15.76557 | -74.24185 | 34052 ft | 434 kts | 334° |
| 2026-04-22 02:08 | -15.71158 | -74.27021 | 34068 ft | 434 kts | 334° |
| 2026-04-22 02:09 | -15.65734 | -74.29868 | 34112 ft | 434 kts | 334° |
| 2026-04-22 02:09 | -15.60350 | -74.32686 | 34160 ft | 434 kts | 334° |
| 2026-04-22 02:10 | -15.54938 | -74.35513 | 34322 ft | 434 kts | 334° |
| 2026-04-22 02:10 | -15.49519 | -74.38339 | 34343 ft | 436 kts | 334° |
| 2026-04-22 02:11 | -15.44138 | -74.41248 | 34310 ft | 436 kts | 328° |
| 2026-04-22 02:11 | -15.39224 | -74.44935 | 34300 ft | 435 kts | 332° |
| 2026-04-22 02:12 | -15.33644 | -74.47487 | 34193 ft | 436 kts | 338° |
| 2026-04-22 02:12 | -15.27995 | -74.49892 | 34040 ft | 437 kts | 338° |
| 2026-04-22 02:12 | -15.25189 | -74.51083 | 33933 ft | 438 kts | 338° |
| 2026-04-22 02:13 | -15.22358 | -74.52284 | 33785 ft | 438 kts | 338° |
| 2026-04-22 02:13 | -15.19524 | -74.53484 | 33613 ft | 439 kts | 338° |
| 2026-04-22 02:13 | -15.16696 | -74.54679 | 33414 ft | 440 kts | 338° |
| 2026-04-22 02:13 | -15.13841 | -74.55884 | 33235 ft | 440 kts | 338° |
| 2026-04-22 02:14 | -15.11013 | -74.57076 | 33168 ft | 441 kts | 338° |
| 2026-04-22 02:14 | -15.05283 | -74.59483 | 33092 ft | 444 kts | 337° |
| 2026-04-22 02:15 | -15.00021 | -74.62910 | 33120 ft | 448 kts | 318° |
| 2026-04-22 02:15 | -14.96154 | -74.67963 | 33160 ft | 452 kts | 300° |
| 2026-04-22 02:16 | -14.94110 | -74.74071 | 33367 ft | 457 kts | 282° |
| 2026-04-22 02:16 | -14.93353 | -74.77267 | 33516 ft | 454 kts | 290° |
| 2026-04-22 02:16 | -14.92095 | -74.80272 | 33677 ft | 452 kts | 300° |
| 2026-04-22 02:16 | -14.90386 | -74.82988 | 33822 ft | 450 kts | 309° |
| 2026-04-22 02:17 | -14.88287 | -74.85345 | 33921 ft | 448 kts | 319° |
| 2026-04-22 02:17 | -14.83082 | -74.88858 | 34037 ft | 444 kts | 334° |
| 2026-04-22 02:18 | -14.77529 | -74.91657 | 34069 ft | 444 kts | 334° |
| 2026-04-22 02:18 | -14.71958 | -74.94466 | 34107 ft | 444 kts | 334° |
| 2026-04-22 02:19 | -14.66376 | -74.97278 | 34046 ft | 445 kts | 334° |
| 2026-04-22 02:19 | -14.60804 | -75.00082 | 33938 ft | 445 kts | 334° |
| 2026-04-22 02:20 | -14.55205 | -75.02895 | 33775 ft | 446 kts | 334° |
| 2026-04-22 02:20 | -14.49616 | -75.05696 | 33642 ft | 448 kts | 334° |
| 2026-04-22 02:21 | -14.43949 | -75.08526 | 33536 ft | 449 kts | 334° |
| 2026-04-22 02:21 | -14.38307 | -75.11331 | 33353 ft | 451 kts | 334° |
| 2026-04-22 02:21 | -14.35472 | -75.12736 | 33217 ft | 451 kts | 334° |
| 2026-04-22 02:22 | -14.32621 | -75.14146 | 33041 ft | 452 kts | 334° |
| 2026-04-22 02:22 | -14.26969 | -75.16936 | 32901 ft | 452 kts | 334° |
| 2026-04-22 02:23 | -14.21243 | -75.19748 | 32820 ft | 454 kts | 334° |
| 2026-04-22 02:23 | -14.15526 | -75.22540 | 32781 ft | 456 kts | 334° |
| 2026-04-22 02:24 | -14.09738 | -75.25355 | 32756 ft | 456 kts | 334° |
| 2026-04-22 02:24 | -14.04411 | -75.28839 | 32743 ft | 456 kts | 318° |
| 2026-04-22 02:25 | -14.00423 | -75.33867 | 32761 ft | 457 kts | 303° |
| 2026-04-22 02:25 | -13.96937 | -75.39342 | 32802 ft | 457 kts | 303° |
| 2026-04-22 02:26 | -13.93421 | -75.44843 | 32880 ft | 458 kts | 303° |
| 2026-04-22 02:26 | -13.89912 | -75.50306 | 32971 ft | 460 kts | 303° |
| 2026-04-22 02:27 | -13.86373 | -75.55795 | 33055 ft | 459 kts | 303° |
| 2026-04-22 02:27 | -13.82850 | -75.61244 | 33124 ft | 459 kts | 303° |
| 2026-04-22 02:28 | -13.79321 | -75.66687 | 33201 ft | 459 kts | 304° |
| 2026-04-22 02:28 | -13.76349 | -75.72505 | 33263 ft | 459 kts | 293° |
| 2026-04-22 02:29 | -13.73908 | -75.78545 | 33317 ft | 459 kts | 293° |
| 2026-04-22 02:29 | -13.71463 | -75.84588 | 33344 ft | 459 kts | 293° |
| 2026-04-22 02:30 | -13.69008 | -75.90652 | 33518 ft | 458 kts | 293° |
| 2026-04-22 02:30 | -13.67791 | -75.93655 | 33654 ft | 458 kts | 293° |
| 2026-04-22 02:30 | -13.66559 | -75.96690 | 33791 ft | 457 kts | 293° |
| 2026-04-22 02:30 | -13.65349 | -75.99676 | 33931 ft | 458 kts | 293° |
| 2026-04-22 02:31 | -13.64130 | -76.02694 | 34014 ft | 458 kts | 293° |
| 2026-04-22 02:31 | -13.61707 | -76.08730 | 34033 ft | 457 kts | 293° |
| 2026-04-22 02:32 | -13.59900 | -76.14985 | 34021 ft | 459 kts | 278° |
| 2026-04-22 02:32 | -13.60126 | -76.21517 | 34027 ft | 462 kts | 259° |
| 2026-04-22 02:33 | -13.62332 | -76.27720 | 34028 ft | 464 kts | 246° |
| 2026-04-22 02:33 | -13.65062 | -76.33754 | 34020 ft | 464 kts | 246° |
| 2026-04-22 02:34 | -13.67479 | -76.39838 | 34023 ft | 462 kts | 257° |
| 2026-04-22 02:34 | -13.68068 | -76.46362 | 34027 ft | 459 kts | 276° |
| 2026-04-22 02:35 | -13.66546 | -76.52702 | 34028 ft | 456 kts | 295° |
| 2026-04-22 02:35 | -13.63126 | -76.58098 | 34028 ft | 453 kts | 313° |
| 2026-04-22 02:36 | -13.58171 | -76.62035 | 34029 ft | 452 kts | 332° |
| 2026-04-22 02:36 | -13.52498 | -76.64874 | 34026 ft | 451 kts | 334° |
| 2026-04-22 02:37 | -13.46830 | -76.67677 | 34024 ft | 451 kts | 334° |
| 2026-04-22 02:37 | -13.41192 | -76.70468 | 34021 ft | 450 kts | 334° |
| 2026-04-22 02:38 | -13.35542 | -76.73267 | 34020 ft | 450 kts | 334° |
| 2026-04-22 02:38 | -13.29896 | -76.76063 | 34020 ft | 450 kts | 334° |
| 2026-04-22 02:39 | -13.24235 | -76.78871 | 34020 ft | 450 kts | 334° |
| 2026-04-22 02:39 | -13.18685 | -76.81818 | 34020 ft | 449 kts | 334° |
| 2026-04-22 02:40 | -13.12887 | -76.84267 | 34021 ft | 449 kts | 338° |
| 2026-04-22 02:40 | -13.07093 | -76.86642 | 34019 ft | 449 kts | 338° |
| 2026-04-22 02:41 | -13.01276 | -76.89029 | 34018 ft | 449 kts | 338° |
| 2026-04-22 02:41 | -12.95461 | -76.91418 | 34018 ft | 448 kts | 338° |
| 2026-04-22 02:42 | -12.89670 | -76.93800 | 34016 ft | 448 kts | 338° |
| 2026-04-22 02:42 | -12.83846 | -76.96200 | 34018 ft | 448 kts | 338° |
| 2026-04-22 02:43 | -12.78130 | -76.98558 | 33968 ft | 428 kts | 338° |
| 2026-04-22 02:43 | -12.75372 | -76.99699 | 33564 ft | 416 kts | 338° |
| 2026-04-22 02:43 | -12.72695 | -77.00807 | 32800 ft | 416 kts | 338° |
| 2026-04-22 02:43 | -12.70021 | -77.01914 | 31730 ft | 421 kts | 338° |
| 2026-04-22 02:44 | -12.67302 | -77.03033 | 30557 ft | 428 kts | 338° |
| 2026-04-22 02:44 | -12.64543 | -77.04166 | 29462 ft | 429 kts | 338° |
| 2026-04-22 02:44 | -12.61833 | -77.05273 | 28655 ft | 424 kts | 338° |
| 2026-04-22 02:44 | -12.59116 | -77.06380 | 27748 ft | 416 kts | 338° |
| 2026-04-22 02:45 | -12.56463 | -77.07453 | 26837 ft | 409 kts | 338° |
| 2026-04-22 02:45 | -12.53843 | -77.08507 | 25893 ft | 404 kts | 338° |
| 2026-04-22 02:45 | -12.51221 | -77.09555 | 24924 ft | 401 kts | 338° |
| 2026-04-22 02:45 | -12.48662 | -77.10574 | 24046 ft | 397 kts | 338° |
| 2026-04-22 02:46 | -12.46111 | -77.11588 | 23195 ft | 393 kts | 338° |
| 2026-04-22 02:46 | -12.43583 | -77.12592 | 22362 ft | 388 kts | 338° |
| 2026-04-22 02:46 | -12.41093 | -77.13582 | 21544 ft | 383 kts | 338° |
| 2026-04-22 02:46 | -12.38652 | -77.14550 | 20763 ft | 379 kts | 338° |
| 2026-04-22 02:47 | -12.36176 | -77.15532 | 20099 ft | 377 kts | 338° |
| 2026-04-22 02:47 | -12.33711 | -77.16509 | 19989 ft | 385 kts | 338° |
| 2026-04-22 02:47 | -12.31191 | -77.17505 | 19959 ft | 390 kts | 338° |
| 2026-04-22 02:47 | -12.28653 | -77.18509 | 19986 ft | 391 kts | 338° |
| 2026-04-22 02:48 | -12.26087 | -77.19523 | 19989 ft | 392 kts | 338° |
| 2026-04-22 02:48 | -12.23550 | -77.20525 | 19989 ft | 392 kts | 338° |
| 2026-04-22 02:48 | -12.21013 | -77.21526 | 19991 ft | 392 kts | 338° |
| 2026-04-22 02:48 | -12.18457 | -77.22535 | 20007 ft | 386 kts | 338° |
| 2026-04-22 02:49 | -12.16017 | -77.23497 | 19789 ft | 367 kts | 338° |
| 2026-04-22 02:49 | -12.13639 | -77.24435 | 19202 ft | 363 kts | 338° |
| 2026-04-22 02:49 | -12.11323 | -77.25347 | 18456 ft | 363 kts | 338° |
| 2026-04-22 02:49 | -12.08960 | -77.26279 | 17649 ft | 363 kts | 338° |
| 2026-04-22 02:50 | -12.06598 | -77.27209 | 16898 ft | 359 kts | 338° |
| 2026-04-22 02:50 | -12.04278 | -77.28122 | 16201 ft | 354 kts | 338° |
| 2026-04-22 02:50 | -12.01995 | -77.29020 | 15519 ft | 349 kts | 338° |
| 2026-04-22 02:50 | -11.99762 | -77.29897 | 14816 ft | 345 kts | 338° |
| 2026-04-22 02:51 | -11.97542 | -77.30771 | 14092 ft | 341 kts | 338° |
| 2026-04-22 02:51 | -11.95324 | -77.31644 | 13357 ft | 338 kts | 338° |
| 2026-04-22 02:51 | -11.93137 | -77.32503 | 12629 ft | 335 kts | 338° |
| 2026-04-22 02:51 | -11.90978 | -77.33353 | 11909 ft | 331 kts | 338° |
| 2026-04-22 02:52 | -11.88851 | -77.34191 | 11196 ft | 328 kts | 338° |
| 2026-04-22 02:52 | -11.86725 | -77.35028 | 10483 ft | 325 kts | 338° |
| 2026-04-22 02:52 | -11.84639 | -77.35850 | 9780 ft | 322 kts | 338° |
| 2026-04-22 02:52 | -11.82530 | -77.36681 | 9056 ft | 320 kts | 338° |
| 2026-04-22 02:53 | -11.80481 | -77.37489 | 8344 ft | 318 kts | 338° |
| 2026-04-22 02:53 | -11.78414 | -77.38305 | 7624 ft | 316 kts | 338° |
| 2026-04-22 02:53 | -11.76291 | -77.38801 | 6879 ft | 315 kts | 1° |
| 2026-04-22 02:53 | -11.74213 | -77.38216 | 6151 ft | 313 kts | 31° |
| 2026-04-22 02:54 | -11.72696 | -77.36657 | 5439 ft | 310 kts | 61° |
| 2026-04-22 02:54 | -11.72166 | -77.34576 | 4750 ft | 306 kts | 92° |
| 2026-04-22 02:54 | -11.72733 | -77.32552 | 4079 ft | 301 kts | 122° |
| 2026-04-22 02:54 | -11.74064 | -77.30931 | 3446 ft | 296 kts | 133° |
| 2026-04-22 02:55 | -11.75442 | -77.29429 | 2831 ft | 292 kts | 133° |
| 2026-04-22 02:55 | -11.76823 | -77.27911 | 2229 ft | 288 kts | 133° |
| 2026-04-22 02:55 | -11.78187 | -77.26397 | 2049 ft | 289 kts | 133° |
| 2026-04-22 02:55 | -11.79579 | -77.24850 | 2027 ft | 296 kts | 133° |
| 2026-04-22 02:56 | -11.80978 | -77.23297 | 2020 ft | 297 kts | 133° |
| 2026-04-22 02:56 | -11.82393 | -77.21735 | 2020 ft | 296 kts | 133° |
| 2026-04-22 02:56 | -11.83721 | -77.20271 | 2004 ft | 271 kts | 133° |
| 2026-04-22 02:56 | -11.85134 | -77.19135 | 2001 ft | 246 kts | 156° |
| 2026-04-22 02:57 | -11.86606 | -77.18413 | 2008 ft | 225 kts | 152° |
| 2026-04-22 02:57 | -11.87944 | -77.17690 | 2002 ft | 207 kts | 152° |
| 2026-04-22 02:57 | -11.89193 | -77.17014 | 1889 ft | 205 kts | 152° |
| 2026-04-22 02:57 | -11.90467 | -77.16317 | 1229 ft | 223 kts | 152° |
| 2026-04-22 02:58 | -11.91851 | -77.15558 | 684 ft | 229 kts | 152° |
| 2026-04-22 02:58 | -11.93257 | -77.14813 | 425 ft | 221 kts | 155° |
| 2026-04-22 02:58 | -11.94623 | -77.14234 | 324 ft | 207 kts | 161° |
| 2026-04-22 02:58 | -11.95947 | -77.13882 | 261 ft | 190 kts | 172° |
| 2026-04-22 02:59 | -11.97194 | -77.13861 | 1220 ft | 168 kts | 188° |
| 2026-04-22 02:59 | -11.98200 | -77.14268 | 1976 ft | 157 kts | 218° |